Millford, South Carolina
Current Conditions -  °F | °C
As of 12:28 AM on Sunday 21 Dec 2014 (Local Time) from KSSC Reporting Station
Overcast Overcast  
Wind Chill: 37°   Ceiling: 6000
Heat Index: 41°   Visibility: 10mi
Dew Point: 39°   Wind: 6mph
Humidity: 93%   Direction: 60°ENE
Pressure: 30.23"   Gusts: NA
Location:  33.7445°N, 80.5249°W
Report Text: KSSC 210528Z AUTO 06005KT 10SM SCT020 OVC060 05/04 A3023 RMK AO2 $
Loading
Personal Weather Stations






























Interactive Weather Map New forecast layout! Learn more

10-Day Weather Forecast

Advertisements
Track Severe Weather on mobile